Time;durP1;ratioP1;P1;durP2;ratioP2;P2;SDS_P1;SDS_P2;PMS_P1;PMS_P2;Temp;Humidity;BMP_temperature;BMP_pressure;BME280_temperature;BME280_humidity;BME280_pressure;Samples;Min_cycle;Max_cycle;Signal;HPM_P1;HPM_P2
2022/08/05 00:01:13;;;;;;;0.08;0.08;;;19.60;99.90;;;;;;5031310;28;20068;-67
2022/08/05 00:03:38;;;;;;;0.00;0.00;;;19.60;99.90;;;;;;5050433;28;20053;-67
2022/08/05 00:06:04;;;;;;;0.20;0.20;;;19.60;99.90;;;;;;5047559;28;20055;-67
2022/08/05 00:08:29;;;;;;;0.00;0.00;;;19.60;99.90;;;;;;5050362;28;20044;-67
2022/08/05 00:10:59;;;;;;;0.73;0.73;;;19.60;99.90;;;;;;5039766;28;20045;-67
2022/08/05 00:13:24;;;;;;;0.00;0.00;;;19.60;99.90;;;;;;5029685;28;20053;-67
2022/08/05 00:15:50;;;;;;;0.80;0.65;;;19.60;99.90;;;;;;5047269;28;20061;-67
2022/08/05 00:18:15;;;;;;;0.00;0.00;;;19.60;99.90;;;;;;5035351;28;20052;-67
2022/08/05 00:20:41;;;;;;;0.10;0.10;;;19.60;99.90;;;;;;5050374;28;20045;-67
2022/08/05 00:23:06;;;;;;;0.00;0.00;;;19.50;99.90;;;;;;5047726;28;20127;-67
2022/08/05 00:25:32;;;;;;;0.00;0.00;;;19.50;99.90;;;;;;5047469;28;20048;-67
2022/08/05 00:27:58;;;;;;;0.00;0.00;;;19.50;99.90;;;;;;5035557;28;20052;-67
2022/08/05 00:30:24;;;;;;;0.00;0.00;;;19.60;99.90;;;;;;5029746;28;20045;-67
2022/08/05 00:32:50;;;;;;;0.43;0.40;;;19.50;99.90;;;;;;5040439;28;20064;-67
2022/08/05 00:35:15;;;;;;;0.00;0.00;;;19.50;99.90;;;;;;5036778;28;20041;-67
2022/08/05 00:37:41;;;;;;;0.00;0.00;;;19.50;99.90;;;;;;5029218;28;20131;-67
2022/08/05 00:40:07;;;;;;;0.00;0.00;;;19.50;99.90;;;;;;5029760;28;20049;-67
2022/08/05 00:42:38;;;;;;;0.00;0.00;;;19.60;99.90;;;;;;5035048;28;20479;-67
2022/08/05 00:45:06;;;;;;;0.73;0.73;;;19.60;99.90;;;;;;5039341;28;20048;-67
2022/08/05 00:47:32;;;;;;;0.15;0.10;;;19.50;99.90;;;;;;5048953;28;20044;-67
2022/08/05 00:49:58;;;;;;;3.60;1.55;;;19.50;99.90;;;;;;5033935;28;20045;-67
2022/08/05 00:52:23;;;;;;;0.00;0.00;;;19.50;99.90;;;;;;5030164;28;20049;-67
2022/08/05 00:54:49;;;;;;;0.20;0.20;;;19.50;99.90;;;;;;5038531;28;20041;-67
2022/08/05 00:57:14;;;;;;;0.00;0.00;;;19.50;99.90;;;;;;5028789;28;20123;-67
2022/08/05 00:59:40;;;;;;;0.00;0.00;;;19.40;99.90;;;;;;5031415;28;20060;-68
2022/08/05 01:02:06;;;;;;;0.20;0.20;;;19.40;99.90;;;;;;5042790;28;20056;-67
2022/08/05 01:04:31;;;;;;;0.00;0.00;;;19.40;99.90;;;;;;5030990;28;20045;-67
2022/08/05 01:06:57;;;;;;;0.00;0.00;;;19.50;99.90;;;;;;5026368;28;20041;-66
2022/08/05 01:09:23;;;;;;;0.15;0.15;;;19.40;99.90;;;;;;5028251;28;20507;-67
2022/08/05 01:11:52;;;;;;;0.00;0.00;;;19.40;99.90;;;;;;5029376;28;20054;-67
2022/08/05 01:14:37;;;;;;;0.00;0.00;;;19.40;99.90;;;;;;5032569;28;20164;-67
2022/08/05 01:17:20;;;;;;;0.00;0.00;;;19.40;99.90;;;;;;5046840;28;20056;-67
2022/08/05 01:20:12;;;;;;;0.00;0.00;;;19.30;99.90;;;;;;5064568;28;20060;-66
2022/08/05 01:22:59;;;;;;;0.00;0.00;;;19.30;99.90;;;;;;5032686;28;20509;-67
2022/08/05 01:25:53;;;;;;;0.00;0.00;;;19.30;99.90;;;;;;5027854;28;20053;-67
2022/08/05 01:28:31;;;;;;;0.25;0.20;;;19.30;99.90;;;;;;5029673;28;20041;-67
2022/08/05 01:31:13;;;;;;;0.00;0.00;;;19.20;99.90;;;;;;5046321;28;20381;-67
2022/08/05 01:34:10;;;;;;;0.00;0.00;;;19.20;99.90;;;;;;5048369;28;20048;-67
2022/08/05 01:36:43;;;;;;;0.17;0.17;;;19.20;99.90;;;;;;5034321;28;20060;-67
2022/08/05 01:39:11;;;;;;;0.45;0.45;;;19.20;99.90;;;;;;5027729;28;20045;-67
2022/08/05 01:41:38;;;;;;;0.00;0.00;;;19.10;99.90;;;;;;5032934;28;20041;-67
2022/08/05 01:44:06;;;;;;;0.98;0.15;;;19.00;99.90;;;;;;5040104;28;20128;-66
2022/08/05 01:46:33;;;;;;;0.80;0.65;;;19.00;99.90;;;;;;5045607;28;20567;-67
2022/08/05 01:49:00;;;;;;;0.00;0.00;;;19.00;99.90;;;;;;5047008;28;20041;-67
2022/08/05 01:51:28;;;;;;;0.20;0.20;;;18.90;99.90;;;;;;5038448;28;20095;-67
2022/08/05 01:53:57;;;;;;;0.13;0.13;;;18.80;99.90;;;;;;5037136;28;20094;-67
2022/08/05 01:56:27;;;;;;;0.30;0.20;;;18.70;99.90;;;;;;5040073;28;20049;-67
2022/08/05 01:58:54;;;;;;;0.00;0.00;;;18.80;99.90;;;;;;5048687;28;20554;-67
2022/08/05 02:01:21;;;;;;;0.00;0.00;;;18.70;99.90;;;;;;5028658;28;20728;-67
2022/08/05 02:03:50;;;;;;;0.00;0.00;;;18.70;99.90;;;;;;5028314;28;20054;-67
2022/08/05 02:06:16;;;;;;;0.10;0.10;;;18.80;99.90;;;;;;5028626;28;20515;-67
2022/08/05 02:08:42;;;;;;;0.05;0.05;;;18.70;99.90;;;;;;5044083;28;20045;-67
2022/08/05 02:11:10;;;;;;;0.00;0.00;;;18.60;99.90;;;;;;5027860;28;20056;-67
2022/08/05 02:14:00;;;;;;;0.10;0.10;;;18.50;99.90;;;;;;5045884;28;20049;-67
2022/08/05 02:16:31;;;;;;;0.35;0.28;;;18.60;99.90;;;;;;5044087;28;20041;-67
2022/08/05 02:19:22;;;;;;;0.00;0.00;;;18.70;99.90;;;;;;5037816;28;20168;-67
2022/08/05 02:21:57;;;;;;;0.10;0.10;;;18.70;99.90;;;;;;5035517;28;20083;-67
2022/08/05 02:24:27;;;;;;;0.00;0.00;;;18.70;99.90;;;;;;5038696;28;20095;-67
2022/08/05 02:27:00;;;;;;;0.28;0.28;;;18.60;99.90;;;;;;5027891;28;20049;-67
2022/08/05 02:29:28;;;;;;;0.00;0.00;;;18.60;99.90;;;;;;5027208;28;20053;-67
2022/08/05 02:31:56;;;;;;;0.00;0.00;;;18.50;99.90;;;;;;5037731;28;20503;-66
2022/08/05 02:34:26;;;;;;;0.00;0.00;;;18.60;99.90;;;;;;5034366;28;20497;-66
2022/08/05 02:36:56;;;;;;;0.00;0.00;;;18.60;99.90;;;;;;5027168;28;20091;-67
2022/08/05 02:39:23;;;;;;;0.00;0.00;;;18.50;99.90;;;;;;5043213;28;20040;-66
2022/08/05 02:41:51;;;;;;;0.00;0.00;;;18.60;99.90;;;;;;5037756;28;20128;-67
2022/08/05 02:44:18;;;;;;;0.00;0.00;;;18.60;99.90;;;;;;5032281;28;20041;-67
2022/08/05 02:46:46;;;;;;;0.00;0.00;;;18.60;99.90;;;;;;5047647;28;20090;-67
2022/08/05 02:49:14;;;;;;;0.10;0.10;;;18.60;99.90;;;;;;5035844;28;20049;-67
2022/08/05 02:51:41;;;;;;;0.00;0.00;;;18.70;99.90;;;;;;5027698;28;20041;-67
2022/08/05 02:54:08;;;;;;;0.00;0.00;;;18.70;99.90;;;;;;5029292;28;20038;-66
2022/08/05 02:56:34;;;;;;;0.00;0.00;;;18.70;99.90;;;;;;5027328;28;20128;-67
2022/08/05 02:59:00;;;;;;;0.00;0.00;;;18.70;99.90;;;;;;5027296;28;20210;-67
2022/08/05 03:01:27;;;;;;;0.73;0.73;;;18.70;99.90;;;;;;5036158;28;20098;-67
2022/08/05 03:03:57;;;;;;;0.57;0.57;;;18.60;99.90;;;;;;5038205;28;20049;-67
2022/08/05 03:06:24;;;;;;;0.00;0.00;;;18.60;99.90;;;;;;5034268;28;20178;-67
2022/08/05 03:08:50;;;;;;;0.03;0.03;;;18.50;99.90;;;;;;5041167;28;20048;-67
2022/08/05 03:11:22;;;;;;;0.00;0.00;;;18.50;99.90;;;;;;5031432;28;20053;-67
2022/08/05 03:13:49;;;;;;;0.15;0.15;;;18.50;99.90;;;;;;5035044;28;20082;-67
2022/08/05 03:16:15;;;;;;;0.10;0.10;;;18.50;99.90;;;;;;5035345;28;20136;-67
2022/08/05 03:18:41;;;;;;;0.00;0.00;;;18.50;99.90;;;;;;5031470;28;20187;-66
2022/08/05 03:21:06;;;;;;;0.20;0.20;;;18.60;99.90;;;;;;5030686;28;20053;-67
2022/08/05 03:23:33;;;;;;;0.00;0.00;;;18.60;99.90;;;;;;5039220;28;20036;-67
2022/08/05 03:26:00;;;;;;;0.00;0.00;;;18.60;99.90;;;;;;5031848;28;20072;-67
2022/08/05 03:28:26;;;;;;;0.20;0.20;;;18.40;99.90;;;;;;5031452;28;20045;-67
2022/08/05 03:30:53;;;;;;;0.00;0.00;;;18.40;99.90;;;;;;5032019;28;20087;-67
2022/08/05 03:33:19;;;;;;;0.00;0.00;;;18.30;99.90;;;;;;5030014;28;20523;-67
2022/08/05 03:35:46;;;;;;;0.25;0.25;;;18.40;99.90;;;;;;5031454;28;20574;-66
2022/08/05 03:38:12;;;;;;;0.10;0.10;;;18.40;99.90;;;;;;5031427;28;20059;-67
2022/08/05 03:40:42;;;;;;;0.00;0.00;;;18.40;99.90;;;;;;5030722;28;20120;-67
2022/08/05 03:43:08;;;;;;;0.00;0.00;;;18.40;99.90;;;;;;5045130;28;20570;-67
2022/08/05 03:45:33;;;;;;;2.72;1.27;;;18.40;99.90;;;;;;5034343;28;20068;-66
2022/08/05 03:47:59;;;;;;;8.65;0.98;;;18.40;99.90;;;;;;5029860;28;20045;-67
2022/08/05 03:50:54;;;;;;;0.00;0.00;;;18.40;99.90;;;;;;5029823;28;20063;-67
2022/08/05 03:53:38;;;;;;;0.00;0.00;;;18.30;99.90;;;;;;5040918;28;20119;-67
2022/08/05 03:56:23;;;;;;;0.00;0.00;;;18.20;99.90;;;;;;5030569;28;20048;-66
2022/08/05 03:58:52;;;;;;;0.00;0.00;;;18.20;99.90;;;;;;5031858;28;20044;-67
2022/08/05 04:01:19;;;;;;;0.35;0.10;;;18.10;99.90;;;;;;5028083;28;20591;-67
2022/08/05 04:03:47;;;;;;;0.00;0.00;;;18.10;99.90;;;;;;5034022;28;20049;-67
2022/08/05 04:06:14;;;;;;;1.92;0.47;;;18.10;99.90;;;;;;5030589;28;20050;-67
2022/08/05 04:08:41;;;;;;;0.10;0.10;;;18.10;99.90;;;;;;5030411;28;20573;-67
2022/08/05 04:11:07;;;;;;;0.00;0.00;;;18.10;99.90;;;;;;5029742;28;20057;-67
2022/08/05 04:13:33;;;;;;;0.00;0.00;;;18.00;99.90;;;;;;5050816;28;20048;-67
2022/08/05 04:15:58;;;;;;;0.10;0.10;;;18.00;99.90;;;;;;5048810;28;20041;-67
2022/08/05 04:18:25;;;;;;;0.00;0.00;;;18.00;99.90;;;;;;5030826;28;20068;-66
2022/08/05 04:20:55;;;;;;;0.00;0.00;;;18.00;99.90;;;;;;5033881;28;20048;-67
2022/08/05 04:23:24;;;;;;;0.00;0.00;;;18.00;99.90;;;;;;5046601;28;20048;-66
2022/08/05 04:25:50;;;;;;;0.00;0.00;;;18.00;99.90;;;;;;5050365;28;20507;-66
2022/08/05 04:28:15;;;;;;;0.00;0.00;;;18.00;99.90;;;;;;5034271;28;20050;-67
2022/08/05 04:30:41;;;;;;;0.00;0.00;;;17.90;99.90;;;;;;5029586;28;20057;-67
2022/08/05 04:33:06;;;;;;;0.10;0.10;;;18.00;99.90;;;;;;5032150;28;20045;-67
2022/08/05 04:35:32;;;;;;;0.00;0.00;;;17.90;99.90;;;;;;5030435;28;20052;-67
2022/08/05 04:37:57;;;;;;;0.10;0.10;;;17.90;99.90;;;;;;5029127;28;20057;-67
2022/08/05 04:40:23;;;;;;;0.13;0.10;;;17.90;99.90;;;;;;5030047;28;20116;-67
2022/08/05 04:42:48;;;;;;;0.80;0.52;;;17.90;99.90;;;;;;5032520;28;20148;-67
2022/08/05 04:45:14;;;;;;;0.00;0.00;;;17.90;99.90;;;;;;5045580;28;20110;-67
2022/08/05 04:47:39;;;;;;;1.90;0.22;;;18.00;99.90;;;;;;5037431;28;20033;-66
2022/08/05 04:50:05;;;;;;;0.00;0.00;;;17.90;99.90;;;;;;5029271;28;20052;-67
2022/08/05 04:52:31;;;;;;;0.10;0.10;;;18.00;99.90;;;;;;5040388;28;20051;-67
2022/08/05 04:54:56;;;;;;;0.20;0.20;;;17.90;99.90;;;;;;5032950;28;20448;-67
2022/08/05 04:57:22;;;;;;;1.08;0.43;;;17.90;99.90;;;;;;5028311;28;20046;-67
2022/08/05 04:59:48;;;;;;;0.00;0.00;;;18.00;99.90;;;;;;5029029;28;20041;-67
2022/08/05 05:02:13;;;;;;;0.00;0.00;;;18.00;99.90;;;;;;5029723;28;20085;-67
2022/08/05 05:04:39;;;;;;;0.00;0.00;;;18.10;99.90;;;;;;5027289;28;20050;-67
2022/08/05 05:07:04;;;;;;;0.00;0.00;;;18.00;99.90;;;;;;5044020;28;20452;-67
2022/08/05 05:09:30;;;;;;;0.00;0.00;;;18.10;99.90;;;;;;5041482;28;20100;-67
2022/08/05 05:11:55;;;;;;;0.10;0.10;;;18.10;99.90;;;;;;5029145;28;20132;-67
2022/08/05 05:14:21;;;;;;;0.10;0.10;;;18.10;99.90;;;;;;5029037;28;20045;-67
2022/08/05 05:16:46;;;;;;;0.00;0.00;;;18.10;99.90;;;;;;5029165;28;20041;-67
2022/08/05 05:19:12;;;;;;;0.08;0.08;;;18.10;99.90;;;;;;5029781;28;20508;-67
2022/08/05 05:21:38;;;;;;;0.00;0.00;;;18.20;99.90;;;;;;5035802;28;20453;-67
2022/08/05 05:24:04;;;;;;;0.10;0.10;;;18.20;99.90;;;;;;5047283;28;20033;-67
2022/08/05 05:26:29;;;;;;;0.00;0.00;;;18.10;99.90;;;;;;5047153;28;20128;-67
2022/08/05 05:28:55;;;;;;;0.00;0.00;;;18.10;99.90;;;;;;5049366;28;20131;-67
2022/08/05 05:31:20;;;;;;;0.00;0.00;;;18.10;99.90;;;;;;5036718;28;20076;-67
2022/08/05 05:33:46;;;;;;;0.00;0.00;;;18.10;99.90;;;;;;5041810;28;20037;-67
2022/08/05 05:36:11;;;;;;;0.00;0.00;;;18.10;99.90;;;;;;5048928;28;20484;-67
2022/08/05 05:38:37;;;;;;;0.00;0.00;;;18.10;99.90;;;;;;5038048;28;20068;-67
2022/08/05 05:41:03;;;;;;;0.00;0.00;;;18.20;99.90;;;;;;5044654;28;20067;-67
2022/08/05 05:43:28;;;;;;;0.00;0.00;;;18.20;99.90;;;;;;5047104;28;20087;-67
2022/08/05 05:45:54;;;;;;;0.00;0.00;;;18.20;99.90;;;;;;5038561;28;20041;-67
2022/08/05 05:48:19;;;;;;;0.00;0.00;;;18.30;99.90;;;;;;5032317;28;20056;-67
2022/08/05 05:50:45;;;;;;;0.03;0.03;;;18.30;99.90;;;;;;5034076;28;20053;-67
2022/08/05 05:53:12;;;;;;;0.08;0.08;;;18.30;99.90;;;;;;5047729;28;20055;-67
2022/08/05 05:55:37;;;;;;;0.05;0.05;;;18.40;99.90;;;;;;5038978;28;20072;-67
2022/08/05 05:58:03;;;;;;;0.15;0.15;;;18.50;99.90;;;;;;5028536;28;20080;-67
2022/08/05 06:00:28;;;;;;;0.00;0.00;;;18.60;99.90;;;;;;5029062;28;20508;-67
2022/08/05 06:02:54;;;;;;;0.00;0.00;;;18.60;99.90;;;;;;5036618;28;20057;-67
2022/08/05 06:05:20;;;;;;;0.00;0.00;;;18.60;99.90;;;;;;5027464;28;20068;-67
2022/08/05 06:07:46;;;;;;;0.10;0.03;;;18.70;99.90;;;;;;5028200;28;20049;-67
2022/08/05 06:10:11;;;;;;;0.00;0.00;;;18.70;99.90;;;;;;5043975;28;20052;-67
2022/08/05 06:12:38;;;;;;;0.00;0.00;;;18.70;99.90;;;;;;5039782;28;20051;-67
2022/08/05 06:15:05;;;;;;;0.00;0.00;;;18.70;99.90;;;;;;5027601;28;20045;-67
2022/08/05 06:17:31;;;;;;;0.00;0.00;;;18.80;99.90;;;;;;5031343;28;20037;-67
2022/08/05 06:19:57;;;;;;;0.05;0.05;;;18.80;99.90;;;;;;5048457;28;20071;-67
2022/08/05 06:22:25;;;;;;;0.00;0.00;;;18.80;99.90;;;;;;5034651;28;20072;-67
2022/08/05 06:24:51;;;;;;;0.10;0.10;;;18.80;99.90;;;;;;5042271;28;20055;-67
2022/08/05 06:27:16;;;;;;;0.00;0.00;;;18.80;99.90;;;;;;5043428;28;20084;-67
2022/08/05 06:29:42;;;;;;;0.30;0.30;;;18.90;99.90;;;;;;5025973;28;20049;-67
2022/08/05 06:32:08;;;;;;;0.10;0.10;;;19.00;99.90;;;;;;5036172;28;20057;-67
2022/08/05 06:34:34;;;;;;;0.00;0.00;;;19.00;99.90;;;;;;5028809;28;20052;-67
2022/08/05 06:36:59;;;;;;;0.00;0.00;;;19.10;99.90;;;;;;5029645;28;20044;-67
2022/08/05 06:39:25;;;;;;;0.00;0.00;;;19.10;99.90;;;;;;5039238;28;20041;-67
2022/08/05 06:41:51;;;;;;;0.10;0.10;;;19.00;99.90;;;;;;5035788;28;20080;-67
2022/08/05 06:44:17;;;;;;;0.00;0.00;;;19.10;99.90;;;;;;5031577;28;20535;-67
2022/08/05 06:46:42;;;;;;;0.00;0.00;;;19.20;99.90;;;;;;5042261;28;20049;-67
2022/08/05 06:49:08;;;;;;;0.00;0.00;;;19.20;99.90;;;;;;5034223;28;20044;-66
2022/08/05 06:51:34;;;;;;;0.38;0.38;;;19.20;99.90;;;;;;5045438;28;20079;-67
2022/08/05 06:54:01;;;;;;;0.05;0.05;;;19.20;99.90;;;;;;5060845;28;20095;-67
2022/08/05 06:56:28;;;;;;;0.00;0.00;;;19.20;99.90;;;;;;5037630;28;20843;-67
2022/08/05 06:58:54;;;;;;;0.00;0.00;;;19.20;99.90;;;;;;5030944;28;20382;-67
2022/08/05 07:01:20;;;;;;;0.00;0.00;;;19.30;99.90;;;;;;5040792;28;20064;-67
2022/08/05 07:03:45;;;;;;;0.10;0.10;;;19.30;99.90;;;;;;5035911;28;20397;-67
2022/08/05 07:06:11;;;;;;;0.00;0.00;;;19.40;99.90;;;;;;5033860;28;20114;-66
2022/08/05 07:08:36;;;;;;;0.00;0.00;;;19.30;99.90;;;;;;5045326;28;20037;-66
2022/08/05 07:11:03;;;;;;;0.00;0.00;;;19.30;99.90;;;;;;5041465;28;20134;-67
2022/08/05 07:18:57;;;;;;;1.45;0.75;;;19.10;99.90;;;;;;5044226;28;20041;-67
2022/08/05 07:21:23;;;;;;;0.00;0.00;;;19.20;99.90;;;;;;5040815;28;20041;-66
2022/08/05 07:23:48;;;;;;;0.20;0.20;;;19.20;99.90;;;;;;5031293;28;20045;-66
2022/08/05 07:26:14;;;;;;;0.00;0.00;;;19.30;99.90;;;;;;5030673;28;20047;-66
2022/08/05 07:28:39;;;;;;;0.00;0.00;;;19.30;99.90;;;;;;5048748;28;20045;-66
2022/08/05 07:31:06;;;;;;;0.73;0.52;;;19.40;99.90;;;;;;5050429;28;20045;-67
2022/08/05 07:33:32;;;;;;;0.20;0.10;;;19.60;99.90;;;;;;5047120;28;20037;-66
2022/08/05 07:35:58;;;;;;;0.00;0.00;;;19.70;99.90;;;;;;5034683;28;20049;-67
2022/08/05 07:38:25;;;;;;;0.30;0.30;;;19.50;99.90;;;;;;5051363;28;20045;-66
2022/08/05 07:40:50;;;;;;;0.00;0.00;;;19.50;99.90;;;;;;5035354;28;20507;-67
2022/08/05 07:43:16;;;;;;;0.08;0.08;;;19.50;99.90;;;;;;5032555;28;20124;-66
2022/08/05 07:45:45;;;;;;;0.00;0.00;;;19.60;99.90;;;;;;5029802;28;20087;-67
2022/08/05 07:48:11;;;;;;;0.00;0.00;;;19.70;99.90;;;;;;5033420;28;20060;-67
2022/08/05 07:50:37;;;;;;;0.00;0.00;;;19.90;99.90;;;;;;5035209;28;20037;-67
2022/08/05 07:53:03;;;;;;;0.10;0.10;;;19.80;99.90;;;;;;5050408;28;20045;-66
2022/08/05 07:55:30;;;;;;;0.22;0.22;;;19.90;99.90;;;;;;5049785;28;20044;-67
2022/08/05 07:57:56;;;;;;;0.00;0.00;;;19.90;99.90;;;;;;5033188;28;20124;-66
2022/08/05 08:00:21;;;;;;;0.00;0.00;;;20.00;99.90;;;;;;5036026;28;20137;-66
2022/08/05 08:02:47;;;;;;;0.20;0.20;;;20.00;99.90;;;;;;5040817;28;20045;-66
2022/08/05 08:05:14;;;;;;;0.03;0.03;;;19.80;99.90;;;;;;5047501;28;20059;-66
2022/08/05 08:07:40;;;;;;;0.00;0.00;;;19.80;99.90;;;;;;5050190;28;20084;-66
2022/08/05 08:10:06;;;;;;;0.00;0.00;;;20.00;99.90;;;;;;5048853;28;22504;-66
2022/08/05 08:12:32;;;;;;;0.10;0.10;;;19.90;99.90;;;;;;5031269;28;20041;-66
2022/08/05 08:14:57;;;;;;;0.25;0.25;;;19.80;99.90;;;;;;5036511;28;20041;-66
2022/08/05 08:17:23;;;;;;;0.00;0.00;;;19.70;99.90;;;;;;5037059;28;20049;-66
2022/08/05 08:19:48;;;;;;;0.20;0.20;;;19.90;99.90;;;;;;5029842;28;20042;-66
2022/08/05 08:22:14;;;;;;;0.00;0.00;;;19.90;99.90;;;;;;5037999;28;20072;-66
2022/08/05 08:24:40;;;;;;;0.00;0.00;;;19.90;99.90;;;;;;5045494;28;20040;-66
2022/08/05 08:27:06;;;;;;;0.00;0.00;;;19.90;99.90;;;;;;5050297;28;20044;-66
2022/08/05 08:29:31;;;;;;;0.00;0.00;;;20.00;99.90;;;;;;5040872;28;20034;-66
2022/08/05 08:31:57;;;;;;;0.03;0.03;;;20.00;99.90;;;;;;5037820;28;20049;-66
2022/08/05 08:34:25;;;;;;;0.00;0.00;;;20.10;99.90;;;;;;5029971;28;20044;-66
2022/08/05 08:36:50;;;;;;;0.00;0.00;;;20.10;99.90;;;;;;5028926;28;20053;-66
2022/08/05 08:39:20;;;;;;;0.00;0.00;;;20.20;99.90;;;;;;5030120;28;20449;-66
2022/08/05 08:41:53;;;;;;;0.20;0.17;;;20.30;99.90;;;;;;5036176;28;20103;-66
2022/08/05 08:44:20;;;;;;;0.00;0.00;;;20.30;99.90;;;;;;5031340;28;20040;-66
2022/08/05 08:46:47;;;;;;;0.00;0.00;;;20.20;99.90;;;;;;5037896;28;20129;-66
2022/08/05 08:49:14;;;;;;;0.10;0.10;;;20.20;99.90;;;;;;5042898;28;20403;-66
2022/08/05 08:51:45;;;;;;;0.00;0.00;;;20.20;99.90;;;;;;5048250;28;20040;-66
2022/08/05 08:54:11;;;;;;;0.22;0.22;;;20.20;99.90;;;;;;5030463;28;20440;-66
2022/08/05 08:56:40;;;;;;;0.00;0.00;;;20.30;99.90;;;;;;5044373;28;20041;-66
2022/08/05 08:59:06;;;;;;;0.00;0.00;;;20.30;99.90;;;;;;5029759;28;20075;-66
2022/08/05 09:01:32;;;;;;;0.00;0.00;;;20.40;99.90;;;;;;5028575;28;20685;-66
2022/08/05 09:03:59;;;;;;;0.00;0.00;;;20.30;99.90;;;;;;5029195;28;20095;-66
2022/08/05 09:06:27;;;;;;;0.00;0.00;;;20.40;99.90;;;;;;5028660;28;20116;-66
2022/08/05 09:08:52;;;;;;;0.00;0.00;;;20.50;99.90;;;;;;5045000;28;20050;-66
2022/08/05 09:11:18;;;;;;;0.00;0.00;;;20.50;99.90;;;;;;5028695;28;20056;-66
2022/08/05 09:13:44;;;;;;;0.00;0.00;;;20.60;99.90;;;;;;5032315;28;20577;-66
2022/08/05 09:16:11;;;;;;;0.00;0.00;;;20.70;99.90;;;;;;5035738;28;20132;-66
2022/08/05 09:18:37;;;;;;;0.00;0.00;;;20.60;99.90;;;;;;5029073;28;20147;-66
2022/08/05 09:21:04;;;;;;;0.00;0.00;;;20.70;99.90;;;;;;5033141;28;20127;-66
2022/08/05 09:23:29;;;;;;;0.00;0.00;;;20.80;99.90;;;;;;5035402;28;20045;-66
2022/08/05 09:26:11;;;;;;;0.00;0.00;;;20.90;99.90;;;;;;5028805;28;20577;-66
2022/08/05 09:28:39;;;;;;;0.00;0.00;;;21.10;99.90;;;;;;5028528;28;20045;-66
2022/08/05 09:31:08;;;;;;;0.08;0.08;;;21.70;99.90;;;;;;5037931;28;20037;-66
2022/08/05 09:33:51;;;;;;;0.00;0.00;;;22.30;99.90;;;;;;5039660;28;20045;-66
2022/08/05 09:36:17;;;;;;;0.00;0.00;;;22.50;99.90;;;;;;5029092;28;20052;-66
2022/08/05 09:38:59;;;;;;;0.00;0.00;;;22.20;99.90;;;;;;5029704;28;20091;-66
2022/08/05 09:41:25;;;;;;;0.00;0.00;;;22.10;99.90;;;;;;5031249;28;20045;-66
2022/08/05 09:43:51;;;;;;;0.00;0.00;;;22.20;99.90;;;;;;5047722;28;20037;-66
2022/08/05 09:46:25;;;;;;;0.00;0.00;;;22.40;99.90;;;;;;5032914;28;20037;-66
2022/08/05 09:48:52;;;;;;;0.00;0.00;;;22.60;99.90;;;;;;5028756;28;20061;-66
2022/08/05 09:51:33;;;;;;;0.00;0.00;;;22.80;99.70;;;;;;5036360;28;20040;-66
2022/08/05 09:53:58;;;;;;;0.00;0.00;;;23.40;99.40;;;;;;5037564;28;20538;-66
2022/08/05 09:56:36;;;;;;;0.30;0.30;;;23.80;99.40;;;;;;5028616;28;20050;-67
2022/08/05 09:59:11;;;;;;;0.00;0.00;;;23.90;98.90;;;;;;5042121;28;20416;-65
2022/08/05 10:01:42;;;;;;;0.00;0.00;;;24.20;99.00;;;;;;5044191;28;20088;-66
2022/08/05 10:04:13;;;;;;;0.00;0.00;;;23.90;98.20;;;;;;5045528;28;20087;-66
2022/08/05 10:06:40;;;;;;;0.00;0.00;;;23.30;98.80;;;;;;5036649;28;20054;-66
2022/08/05 10:09:14;;;;;;;0.00;0.00;;;23.20;99.30;;;;;;5027763;28;20132;-67
2022/08/05 10:11:40;;;;;;;0.00;0.00;;;23.40;99.50;;;;;;5028824;28;20270;-66
2022/08/05 10:14:29;;;;;;;0.00;0.00;;;23.50;99.70;;;;;;5030345;28;20049;-66
2022/08/05 10:17:07;;;;;;;0.00;0.00;;;23.40;99.50;;;;;;5032457;28;20135;-67
2022/08/05 10:19:33;;;;;;;0.00;0.00;;;23.40;99.90;;;;;;5028454;28;20029;-67
2022/08/05 10:21:59;;;;;;;3.47;0.95;;;23.50;99.40;;;;;;5027060;28;20123;-67
2022/08/05 10:24:25;;;;;;;0.00;0.00;;;23.80;99.40;;;;;;5028219;28;20052;-67
2022/08/05 10:26:53;;;;;;;0.00;0.00;;;24.00;98.90;;;;;;5031304;28;20124;-66
2022/08/05 10:29:21;;;;;;;0.00;0.00;;;24.00;99.50;;;;;;5031316;28;20681;-66
2022/08/05 10:31:47;;;;;;;0.00;0.00;;;23.70;99.60;;;;;;5032724;28;20480;-66
2022/08/05 10:34:12;;;;;;;0.00;0.00;;;23.20;99.90;;;;;;5028775;28;20805;-67
2022/08/05 10:36:40;;;;;;;0.00;0.00;;;23.30;99.90;;;;;;5027654;28;20064;-66
2022/08/05 10:39:23;;;;;;;0.00;0.00;;;23.30;99.70;;;;;;5027169;28;20037;-66
2022/08/05 10:41:54;;;;;;;0.00;0.00;;;23.30;99.70;;;;;;5034406;28;20049;-67
2022/08/05 10:44:22;;;;;;;0.00;0.00;;;22.90;99.90;;;;;;5038492;28;20096;-66
2022/08/05 10:46:53;;;;;;;0.00;0.00;;;23.00;99.90;;;;;;5027860;28;20049;-66
2022/08/05 10:49:22;;;;;;;0.00;0.00;;;23.30;99.90;;;;;;5043340;28;20128;-67
2022/08/05 10:51:49;;;;;;;0.00;0.00;;;23.30;99.90;;;;;;5041114;28;20511;-67
2022/08/05 10:54:16;;;;;;;0.00;0.00;;;23.50;99.90;;;;;;5026834;28;20060;-67
2022/08/05 10:56:54;;;;;;;0.00;0.00;;;23.20;99.70;;;;;;5025895;28;20045;-67
2022/08/05 10:59:31;;;;;;;0.00;0.00;;;23.00;99.90;;;;;;5042130;28;20111;-67
2022/08/05 11:02:07;;;;;;;0.00;0.00;;;23.00;99.90;;;;;;5027574;28;20503;-67
2022/08/05 11:04:44;;;;;;;0.00;0.00;;;23.00;99.20;;;;;;5027203;28;20102;-67
2022/08/05 11:07:14;;;;;;;0.00;0.00;;;22.70;98.80;;;;;;5033934;28;20049;-67
2022/08/05 11:09:50;;;;;;;0.00;0.00;;;22.80;99.90;;;;;;5043262;28;20045;-66
2022/08/05 11:12:38;;;;;;;0.00;0.00;;;22.80;99.90;;;;;;5043286;28;20077;-66
2022/08/05 11:15:17;;;;;;;0.00;0.00;;;22.50;99.90;;;;;;5046699;28;20106;-67
2022/08/05 11:17:44;;;;;;;0.00;0.00;;;22.40;99.90;;;;;;5044310;28;20048;-67
2022/08/05 11:20:36;;;;;;;0.00;0.00;;;22.30;99.90;;;;;;5041282;28;20083;-66
2022/08/05 11:23:27;;;;;;;0.00;0.00;;;22.30;99.90;;;;;;5036534;28;20037;-67
2022/08/05 11:26:20;;;;;;;0.00;0.00;;;22.10;99.90;;;;;;5034399;28;20073;-66
2022/08/05 11:28:50;;;;;;;0.00;0.00;;;21.80;99.90;;;;;;5048914;28;20055;-66
2022/08/05 11:31:16;;;;;;;0.00;0.00;;;21.80;99.90;;;;;;5044854;28;20052;-66
2022/08/05 11:33:47;;;;;;;16.55;0.45;;;21.60;99.90;;;;;;5039400;28;20049;-66
2022/08/05 11:36:37;;;;;;;0.00;0.00;;;21.60;99.90;;;;;;5036532;28;20052;-66
2022/08/05 11:39:03;;;;;;;0.00;0.00;;;21.70;99.90;;;;;;5036476;28;20049;-66
2022/08/05 11:41:33;;;;;;;0.20;0.20;;;21.80;99.90;;;;;;5049570;28;20593;-66
2022/08/05 11:44:10;;;;;;;0.00;0.00;;;22.40;99.90;;;;;;5037903;28;20480;-66
2022/08/05 11:46:49;;;;;;;0.00;0.00;;;22.70;99.90;;;;;;5037092;28;20060;-66
2022/08/05 11:49:17;;;;;;;0.00;0.00;;;22.50;99.90;;;;;;5033578;28;20102;-66
2022/08/05 11:51:44;;;;;;;0.03;0.03;;;22.90;99.90;;;;;;5046362;28;20085;-65
2022/08/05 11:54:11;;;;;;;0.00;0.00;;;23.20;99.90;;;;;;5042972;28;20086;-66
2022/08/05 11:56:48;;;;;;;0.00;0.00;;;23.60;99.90;;;;;;5038371;28;20345;-66
2022/08/05 11:59:16;;;;;;;0.00;0.00;;;23.30;99.90;;;;;;5038025;28;20763;-66
2022/08/05 12:02:05;;;;;;;0.00;0.00;;;23.80;99.90;;;;;;5033233;28;20072;-66
2022/08/05 12:04:38;;;;;;;0.00;0.00;;;23.90;99.90;;;;;;5036590;28;20170;-66
2022/08/05 12:07:05;;;;;;;0.00;0.00;;;23.10;99.90;;;;;;5029670;28;20090;-66
2022/08/05 12:09:36;;;;;;;0.00;0.00;;;23.20;99.90;;;;;;5029784;28;20099;-66
2022/08/05 12:12:03;;;;;;;0.40;0.20;;;23.00;99.90;;;;;;5035565;28;20045;-66
2022/08/05 12:14:42;;;;;;;0.00;0.00;;;22.70;99.50;;;;;;5030159;28;20053;-66
2022/08/05 12:17:14;;;;;;;0.00;0.00;;;22.50;99.90;;;;;;5029499;28;20045;-66
2022/08/05 12:19:58;;;;;;;0.00;0.00;;;22.40;99.90;;;;;;5031245;28;20041;-66
2022/08/05 12:22:28;;;;;;;0.00;0.00;;;22.70;99.90;;;;;;5034783;28;20041;-66
2022/08/05 12:24:57;;;;;;;0.00;0.00;;;22.70;99.90;;;;;;5035258;28;20041;-66
2022/08/05 12:27:28;;;;;;;0.00;0.00;;;22.80;99.90;;;;;;5035584;28;20503;-66
2022/08/05 12:30:00;;;;;;;0.00;0.00;;;23.10;99.90;;;;;;5044493;28;20435;-66
2022/08/05 12:32:25;;;;;;;0.00;0.00;;;23.30;99.90;;;;;;5044099;28;20048;-66
2022/08/05 12:34:51;;;;;;;0.00;0.00;;;24.00;99.90;;;;;;5029765;28;20099;-66
2022/08/05 12:37:17;;;;;;;0.00;0.00;;;24.20;99.90;;;;;;5034582;28;20049;-66
2022/08/05 12:39:43;;;;;;;0.00;0.00;;;24.50;99.50;;;;;;5052713;28;20065;-66
2022/08/05 12:42:12;;;;;;;0.00;0.00;;;24.10;98.30;;;;;;5035078;28;20459;-66
2022/08/05 12:44:38;;;;;;;0.00;0.00;;;23.60;99.00;;;;;;5037281;28;20087;-66
2022/08/05 12:47:04;;;;;;;0.00;0.00;;;23.20;99.90;;;;;;5047357;28;20052;-66
2022/08/05 12:49:41;;;;;;;0.00;0.00;;;23.10;99.90;;;;;;5042641;28;20061;-66
2022/08/05 12:52:13;;;;;;;0.00;0.00;;;22.80;99.70;;;;;;5035747;28;20143;-66
2022/08/05 12:54:39;;;;;;;0.00;0.00;;;22.50;99.90;;;;;;5043167;28;20048;-66
2022/08/05 12:57:06;;;;;;;0.55;0.55;;;22.20;99.90;;;;;;5032429;28;20054;-66
2022/08/05 12:59:43;;;;;;;0.00;0.00;;;22.20;99.90;;;;;;5029593;28;20041;-66
2022/08/05 13:02:10;;;;;;;0.00;0.00;;;22.40;99.90;;;;;;5028708;28;20125;-66